Portada
METAR-TAF:

METAR-TAF

Aeroports :

Bamako, Mali

latitud: 12-32N, longitud: 007-57W, altitud: 380 m

Observació

L'informe es va fer fa 3 hores i 1 minuts, a les 02:00 UTC
Vent 6 kt del Sud-Oest, variant entre Sud i Oest/Sud-Oest
Temperatura 27°C
Humitat 62%
Pressió 1012 hPa
Visibilitat 10 km o més
sense núvols per sota de 1500 mi sense presència de cumulonimbus.

METAR: GABS 070200Z 22006KT 180V250 CAVOK 27/19 Q1012 NOSIG

Hora: 05:01 (05:01 UTC)

Pronòstic

L'informe es va fer fa 6 hores i 1 minuts, a les 23:00 UTC
Pronòstic vàlid del 07 a les 00 UTC al 08 a les 06 UTC
Vent 10 kt del Sud/Sud-Oest
Visibilitat: 8000 m
Probabilitat 40% :
Temporalment
l' 07 a les 16 UTC al 07 a les 22 UTC
Visibilitat: 4000 m
Núvols disperses a una alçada de 3000 ft
Escasses núvols a una alçada de 3300 ft, Cumulonimbus.
tempesta, pluja

TAF: GABS 062300Z 0700/0806 21010KT 8000 NSC PROB40 TEMPO 0716/0722 VVVRB25KT 4000 TSRA SCT030 FEW033CB

Observacions i pronòstics meteorològics de més de 4000 aeroports (METAR i TAF).

Les estacions disponibles són els punts grocs i vermells al mapa.

Posi el ratolí al punt desitjat per veure el nom de l'estació.

Feu clic per veure les observacions i els pronòstics meteorològics.

Per canviar el mapa: feu clic els botons verds amb una creu de color negre per apropar; al botó verd amb un guió per allunyar la imatge; o en les fletxes verdes per a mapes adjacents.


METAR-TAF: